Time;durP1;ratioP1;P1;durP2;ratioP2;P2;SDS_P1;SDS_P2;PMS_P1;PMS_P2;Temp;Humidity;BMP_temperature;BMP_pressure;BME280_temperature;BME280_humidity;BME280_pressure;Samples;Min_cycle;Max_cycle;Signal;HPM_P1;HPM_P2
2023/07/21 00:02:12;;;;;;;;;1.00;1.00;;;;;25.19;35.56;100860.44;5020263;28;45349;-43
2023/07/21 00:04:38;;;;;;;;;1.25;1.25;;;;;25.21;35.61;100860.34;5020081;28;45160;-43
2023/07/21 00:07:03;;;;;;;;;1.00;1.00;;;;;25.19;35.12;100849.84;5028437;28;52520;-47
2023/07/21 00:09:28;;;;;;;;;1.50;1.50;;;;;25.18;35.53;100850.81;5031265;28;45427;-45
2023/07/21 00:11:53;;;;;;;;;3.00;2.00;;;;;25.17;35.36;100841.19;5032408;28;45312;-47
2023/07/21 00:14:19;;;;;;;;;1.50;1.50;;;;;25.19;35.43;100851.66;5034026;28;45235;-45
2023/07/21 00:16:44;;;;;;;;;4.25;1.00;;;;;25.19;35.30;100852.50;5029636;28;45637;-42
2023/07/21 00:19:10;;;;;;;;;1.25;1.25;;;;;25.17;34.60;100849.97;5003560;28;45601;-47
2023/07/21 00:21:35;;;;;;;;;1.00;1.00;;;;;25.19;34.92;100841.88;5020796;28;45611;-42
2023/07/21 00:24:01;;;;;;;;;1.00;1.00;;;;;25.17;34.57;100835.88;5002235;28;45254;-41
2023/07/21 00:26:26;;;;;;;;;1.00;1.00;;;;;25.17;34.69;100833.22;5019420;28;45447;-41
2023/07/21 00:28:52;;;;;;;;;2.00;1.00;;;;;25.16;34.96;100836.84;5019715;28;45512;-41
2023/07/21 00:31:18;;;;;;;;;1.00;1.00;;;;;25.16;34.56;100829.69;5019688;28;45313;-42
2023/07/21 00:33:43;;;;;;;;;1.25;1.25;;;;;25.17;35.18;100830.56;5026682;28;45380;-42
2023/07/21 00:36:08;;;;;;;;;1.00;1.00;;;;;25.14;34.72;100825.47;5027968;28;47435;-41
2023/07/21 00:38:34;;;;;;;;;0.75;0.75;;;;;25.17;35.26;100839.34;5023437;28;45356;-40
2023/07/21 00:40:59;;;;;;;;;0.00;0.00;;;;;25.16;34.93;100844.78;5019670;28;45521;-45
2023/07/21 00:43:25;;;;;;;;;1.00;1.00;;;;;25.17;34.55;100857.09;5019690;28;45293;-45
2023/07/21 00:45:51;;;;;;;;;1.00;1.00;;;;;25.15;34.69;100859.84;5001237;28;47935;-44
2023/07/21 00:48:18;;;;;;;;;1.00;1.00;;;;;25.16;35.16;100861.53;5019049;28;45222;-45
2023/07/21 00:50:44;;;;;;;;;1.00;1.00;;;;;25.16;35.29;100847.44;5019230;28;45300;-44
2023/07/21 00:53:10;;;;;;;;;1.00;1.00;;;;;25.13;35.01;100845.88;5019649;28;45446;-41
2023/07/21 00:55:38;;;;;;;;;1.00;1.00;;;;;25.14;34.69;100847.53;5019198;28;46420;-44
2023/07/21 00:58:03;;;;;;;;;2.25;2.25;;;;;25.13;34.81;100845.00;5018985;28;45819;-46
2023/07/21 01:00:29;;;;;;;;;1.00;1.00;;;;;25.13;34.63;100834.41;5019174;28;45392;-44
2023/07/21 01:02:55;;;;;;;;;2.00;1.00;;;;;25.12;34.99;100827.41;5019336;28;45519;-44
2023/07/21 01:05:21;;;;;;;;;1.25;1.00;;;;;25.11;34.65;100833.66;5018646;28;46253;-46
2023/07/21 01:07:47;;;;;;;;;1.25;1.25;;;;;25.09;34.91;100835.56;5019238;28;45455;-41
2023/07/21 01:10:13;;;;;;;;;2.00;2.00;;;;;25.11;34.78;100841.63;5022508;28;45262;-45
2023/07/21 01:12:39;;;;;;;;;1.50;1.25;;;;;25.07;35.53;100841.00;5021236;28;45290;-43
2023/07/21 01:15:05;;;;;;;;;1.75;1.75;;;;;25.08;35.50;100841.88;5026006;28;46733;-45
2023/07/21 01:17:30;;;;;;;;;1.00;1.00;;;;;25.08;35.42;100833.91;5027463;28;45309;-42
2023/07/21 01:19:58;;;;;;;;;1.00;1.00;;;;;25.06;35.14;100841.97;5038147;28;45369;-41
2023/07/21 01:22:32;;;;;;;;;0.75;0.75;;;;;25.04;35.79;100837.75;5032158;28;45232;-47
2023/07/21 01:25:07;;;;;;;;;1.50;1.00;;;;;25.04;35.67;100843.88;5027838;28;45324;-43
2023/07/21 01:27:39;;;;;;;;;2.00;1.00;;;;;25.03;35.19;100844.84;5028784;28;45399;-42
2023/07/21 01:30:09;;;;;;;;;1.00;1.00;;;;;25.01;35.66;100836.19;5019525;28;45411;-40
2023/07/21 01:32:37;;;;;;;;;0.00;0.00;;;;;25.04;35.12;100846.53;5022767;28;45254;-42
2023/07/21 01:35:04;;;;;;;;;1.00;1.00;;;;;25.02;35.19;100851.13;5025975;28;46488;-44
2023/07/21 01:37:31;;;;;;;;;1.00;1.00;;;;;25.03;35.25;100849.31;5029119;28;45625;-42
2023/07/21 01:39:58;;;;;;;;;1.75;0.75;;;;;25.04;35.62;100843.06;5026770;28;45347;-39
2023/07/21 01:42:29;;;;;;;;;1.00;1.00;;;;;25.03;35.85;100838.69;5032285;28;45724;-43
2023/07/21 01:44:56;;;;;;;;;1.00;1.00;;;;;24.99;35.97;100833.63;5033272;28;46158;-41
2023/07/21 01:47:21;;;;;;;;;1.00;1.00;;;;;25.00;35.96;100832.66;5010034;28;45286;-41
2023/07/21 01:49:47;;;;;;;;;1.00;1.00;;;;;25.00;35.99;100832.66;5025836;28;45436;-45
2023/07/21 01:52:16;;;;;;;;;2.00;2.00;;;;;25.01;36.14;100836.19;5038997;28;62089;-43
2023/07/21 01:54:46;;;;;;;;;1.50;1.50;;;;;25.00;36.13;100832.66;5031671;28;46304;-40
2023/07/21 01:57:17;;;;;;;;;2.00;2.00;;;;;25.00;36.79;100829.19;5019427;28;45369;-42
2023/07/21 01:59:46;;;;;;;;;2.25;2.25;;;;;24.98;36.39;100813.38;5018604;28;45338;-47
2023/07/21 02:02:13;;;;;;;;;1.00;1.00;;;;;25.00;36.63;100821.22;5001066;28;45567;-44
2023/07/21 02:04:39;;;;;;;;;1.25;1.25;;;;;24.97;36.40;100816.97;5017540;28;45736;-42
2023/07/21 02:07:05;;;;;;;;;1.25;1.25;;;;;24.99;36.89;100828.31;5018548;28;45261;-42
2023/07/21 02:09:30;;;;;;;;;1.00;1.00;;;;;24.99;36.38;100825.66;5022065;28;45426;-47
2023/07/21 02:11:56;;;;;;;;;2.00;2.00;;;;;24.99;36.79;100828.31;5028523;28;45471;-44
2023/07/21 02:14:22;;;;;;;;;1.50;1.00;;;;;24.98;36.87;100826.63;5022648;28;45243;-43
2023/07/21 02:16:47;;;;;;;;;1.00;1.00;;;;;24.98;37.06;100821.31;5017961;28;45354;-40
2023/07/21 02:19:12;;;;;;;;;1.00;1.00;;;;;24.97;36.39;100808.19;5018654;28;45313;-45
2023/07/21 02:21:38;;;;;;;;;2.00;2.00;;;;;24.97;37.00;100814.31;5017876;28;45246;-44
2023/07/21 02:24:03;;;;;;;;;1.00;1.00;;;;;24.95;36.43;100818.91;5019366;28;46198;-42
2023/07/21 02:26:29;;;;;;;;;3.00;1.00;;;;;24.95;36.92;100816.28;5034009;28;45537;-47
2023/07/21 02:28:54;;;;;;;;;1.00;1.00;;;;;24.95;36.85;100815.41;5028238;28;45873;-42
2023/07/21 02:31:21;;;;;;;;;1.00;1.00;;;;;24.94;36.51;100814.56;5025606;28;45472;-43
2023/07/21 02:33:47;;;;;;;;;1.00;1.00;;;;;24.92;36.47;100813.84;5024949;28;45421;-46
2023/07/21 02:36:13;;;;;;;;;1.00;1.00;;;;;24.92;36.21;100816.50;5019461;28;45420;-43
2023/07/21 02:38:38;;;;;;;;;1.00;1.00;;;;;24.91;36.68;100814.78;5017800;28;45306;-45
2023/07/21 02:41:05;;;;;;;;;1.00;1.00;;;;;24.91;36.92;100809.50;5000686;28;45279;-41
2023/07/21 02:43:32;;;;;;;;;1.00;1.00;;;;;24.90;36.40;100823.72;5018491;28;45368;-41
2023/07/21 02:45:57;;;;;;;;;1.00;1.00;;;;;24.88;36.76;100824.78;5018464;28;45327;-43
2023/07/21 02:48:23;;;;;;;;;1.75;1.00;;;;;24.86;36.83;100819.56;5018215;28;45309;-46
2023/07/21 02:50:52;;;;;;;;;5.00;1.50;;;;;24.86;36.38;100811.63;5018693;28;45472;-44
2023/07/21 02:53:20;;;;;;;;;3.00;1.00;;;;;24.84;37.03;100805.63;5017945;28;45701;-42
2023/07/21 02:55:46;;;;;;;;;1.25;1.00;;;;;24.85;37.08;100808.16;5018505;28;45605;-43
2023/07/21 02:58:14;;;;;;;;;3.00;1.00;;;;;24.85;36.87;100809.97;5026991;28;45211;-43
2023/07/21 03:00:40;;;;;;;;;1.00;1.00;;;;;24.85;36.67;100815.25;5026548;28;45368;-41
2023/07/21 03:03:08;;;;;;;;;1.00;1.00;;;;;24.86;36.59;100814.28;5018353;28;46168;-41
2023/07/21 03:05:35;;;;;;;;;1.00;1.00;;;;;24.86;36.47;100816.94;5017907;28;45302;-44
2023/07/21 03:08:01;;;;;;;;;2.00;1.25;;;;;24.85;36.43;100813.44;5018108;28;45281;-45
2023/07/21 03:10:27;;;;;;;;;0.50;0.50;;;;;24.87;36.55;100808.03;5018635;28;45512;-44
2023/07/21 03:12:52;;;;;;;;;1.00;1.00;;;;;24.84;36.95;100805.63;5023964;28;46941;-45
2023/07/21 03:15:18;;;;;;;;;1.25;1.25;;;;;24.84;37.26;100805.63;5031069;28;45256;-45
2023/07/21 03:17:43;;;;;;;;;1.25;1.25;;;;;24.80;36.93;100802.34;5019520;28;55505;-43
2023/07/21 03:20:12;;;;;;;;;1.00;1.00;;;;;24.77;37.47;100801.72;5018605;28;45622;-43
2023/07/21 03:22:38;;;;;;;;;1.00;1.00;;;;;24.80;37.34;100812.09;5018352;28;47152;-39
2023/07/21 03:25:06;;;;;;;;;1.50;1.00;;;;;24.80;37.34;100812.09;5018898;28;45711;-45
2023/07/21 03:27:35;;;;;;;;;2.00;2.00;;;;;24.78;37.15;100825.47;5018976;28;45191;-47
2023/07/21 03:30:04;;;;;;;;;2.25;1.00;;;;;24.77;37.55;100817.63;5022853;28;45489;-45
2023/07/21 03:32:29;;;;;;;;;1.25;1.00;;;;;24.76;36.95;100813.28;5006159;28;47268;-49
2023/07/21 03:34:54;;;;;;;;;1.00;1.00;;;;;24.75;37.27;100804.50;5039506;28;57762;-43
2023/07/21 03:37:26;;;;;;;;;2.00;2.00;;;;;24.73;37.49;100810.88;5041319;28;44638;-45
2023/07/21 03:39:54;;;;;;;;;1.50;1.25;;;;;24.72;37.37;100814.47;5037626;28;45548;-42
2023/07/21 03:42:19;;;;;;;;;0.00;0.00;;;;;24.71;36.78;100813.63;5034020;28;70258;-42
2023/07/21 03:44:48;;;;;;;;;1.75;1.00;;;;;24.71;37.47;100808.31;5029832;28;45291;-43
2023/07/21 03:47:17;;;;;;;;;2.00;2.00;;;;;24.68;37.23;100809.41;5034260;28;45440;-42
2023/07/21 03:49:43;;;;;;;;;2.00;1.75;;;;;24.69;37.38;100816.38;5025864;28;45438;-41
2023/07/21 03:52:08;;;;;;;;;2.25;0.50;;;;;24.68;37.58;100822.66;5033084;28;46141;-41
2023/07/21 03:54:34;;;;;;;;;1.75;1.75;;;;;24.69;37.07;100820.84;5010549;28;45291;-41
2023/07/21 03:56:59;;;;;;;;;1.50;1.50;;;;;24.70;37.26;100836.63;5025669;28;45400;-43
2023/07/21 03:59:25;;;;;;;;;2.25;2.00;;;;;24.70;37.50;100833.97;5028828;28;45301;-42
2023/07/21 04:01:50;;;;;;;;;1.00;1.00;;;;;24.70;37.10;100827.81;5025754;28;47094;-45
2023/07/21 04:04:16;;;;;;;;;1.50;1.50;;;;;24.69;37.34;100827.00;5028562;28;45250;-40
2023/07/21 04:06:42;;;;;;;;;1.00;1.00;;;;;24.68;37.09;100827.09;5022617;28;45405;-42
2023/07/21 04:09:08;;;;;;;;;1.00;1.00;;;;;24.70;37.22;100830.47;5022278;28;45611;-46
2023/07/21 04:11:33;;;;;;;;;2.00;2.00;;;;;24.69;37.42;100827.00;5020971;28;46181;-41
2023/07/21 04:13:59;;;;;;;;;0.50;0.50;;;;;24.69;37.01;100829.63;5020552;28;56355;-41
2023/07/21 04:16:25;;;;;;;;;1.00;1.00;;;;;24.69;37.48;100832.28;5029341;28;44747;-43
2023/07/21 04:18:50;;;;;;;;;3.00;2.00;;;;;24.71;37.46;100834.81;5020477;28;45416;-44
2023/07/21 04:21:15;;;;;;;;;1.25;1.00;;;;;24.69;37.15;100837.59;5031638;28;46342;-47
2023/07/21 04:23:41;;;;;;;;;3.00;1.25;;;;;24.67;37.57;100831.53;5021712;28;45391;-46
2023/07/21 04:26:07;;;;;;;;;1.25;1.25;;;;;24.68;37.68;100841.19;5020819;28;45304;-42
2023/07/21 04:28:32;;;;;;;;;1.75;1.75;;;;;24.68;37.40;100840.34;5021096;28;45463;-47
2023/07/21 04:30:57;;;;;;;;;1.75;1.75;;;;;24.68;37.52;100835.91;5020957;28;45667;-46
2023/07/21 04:33:23;;;;;;;;;2.00;1.25;;;;;24.66;37.16;100840.44;5022021;28;45425;-46
2023/07/21 04:35:49;;;;;;;;;3.00;2.00;;;;;24.67;37.13;100842.13;5028971;28;45417;-46
2023/07/21 04:38:14;;;;;;;;;2.00;2.00;;;;;24.65;37.67;100836.09;5032407;28;45222;-45
2023/07/21 04:40:46;;;;;;;;;2.67;1.33;;;;;24.64;37.54;100838.84;5030130;28;67460;-46
2023/07/21 04:43:12;;;;;;;;;2.00;1.00;;;;;24.64;37.78;100837.03;5027172;28;45349;-45
2023/07/21 04:45:41;;;;;;;;;2.00;0.00;;;;;24.63;37.58;100830.06;5028798;28;45435;-42
2023/07/21 04:48:07;;;;;;;;;1.00;1.00;;;;;24.61;37.83;100826.69;5017767;28;45211;-43
2023/07/21 04:50:32;;;;;;;;;3.75;1.25;;;;;24.64;37.82;100828.25;5021682;28;46455;-43
2023/07/21 04:52:58;;;;;;;;;3.33;2.00;;;;;24.61;37.44;100816.09;5019111;28;72782;-43
2023/07/21 04:55:23;;;;;;;;;2.00;2.00;;;;;24.64;37.72;100822.94;5020535;28;45192;-41
2023/07/21 04:57:48;;;;;;;;;1.75;1.75;;;;;24.64;37.62;100823.78;5003773;28;45587;-40
2023/07/21 05:00:15;;;;;;;;;1.00;1.00;;;;;24.61;37.80;100810.78;5025508;28;45444;-41
2023/07/21 05:02:40;;;;;;;;;2.00;1.00;;;;;24.63;37.78;100816.81;5030995;28;45360;-43
2023/07/21 05:05:07;;;;;;;;;1.00;1.00;;;;;24.63;37.91;100814.16;5032829;28;45353;-45
2023/07/21 05:07:32;;;;;;;;;1.25;1.25;;;;;24.57;37.00;100809.31;5042793;28;44744;-46
2023/07/21 05:09:57;;;;;;;;;1.00;1.00;;;;;24.63;37.11;100808.00;5003627;28;48491;-44
2023/07/21 05:12:24;;;;;;;;;1.00;1.00;;;;;24.62;37.35;100815.13;5036900;28;48287;-45
2023/07/21 05:14:49;;;;;;;;;1.00;1.00;;;;;24.62;37.39;100809.81;5039256;28;44715;-42
2023/07/21 05:17:16;;;;;;;;;1.00;1.00;;;;;24.62;37.66;100811.63;5038559;28;44904;-44
2023/07/21 05:19:42;;;;;;;;;2.00;1.00;;;;;24.63;37.13;100826.56;5034483;28;46999;-41
2023/07/21 05:22:07;;;;;;;;;1.00;1.00;;;;;24.62;37.44;100824.88;5034540;28;45170;-43
2023/07/21 05:24:33;;;;;;;;;0.00;0.00;;;;;24.62;37.58;100820.44;5030874;28;46887;-40
2023/07/21 05:26:58;;;;;;;;;1.00;1.00;;;;;24.62;37.12;100831.03;5013858;28;45378;-41
2023/07/21 05:29:23;;;;;;;;;1.75;1.75;;;;;24.60;37.71;100824.97;5030551;28;46136;-42
2023/07/21 05:31:48;;;;;;;;;1.75;1.75;;;;;24.63;37.54;100831.84;5030925;28;45348;-41
2023/07/21 05:34:14;;;;;;;;;3.50;2.00;;;;;24.61;37.74;100829.34;5037633;28;45538;-43
2023/07/21 05:36:39;;;;;;;;;2.50;0.75;;;;;24.62;37.20;100828.38;5039259;28;45373;-43
2023/07/21 05:39:05;;;;;;;;;1.50;1.50;;;;;24.62;37.11;100823.06;5039701;28;51728;-43
2023/07/21 05:41:31;;;;;;;;;2.00;1.00;;;;;24.61;37.62;100813.44;5037289;28;44971;-45
2023/07/21 05:43:58;;;;;;;;;1.50;1.00;;;;;24.63;37.72;100818.59;5038970;28;45238;-40
2023/07/21 05:46:23;;;;;;;;;1.00;1.00;;;;;24.63;37.68;100819.47;5037175;28;45420;-41
2023/07/21 05:48:48;;;;;;;;;1.00;1.00;;;;;24.60;37.73;100806.44;5033139;28;46160;-41
2023/07/21 05:51:14;;;;;;;;;1.00;1.00;;;;;24.60;37.21;100802.94;5021782;28;45328;-42
2023/07/21 05:53:39;;;;;;;;;1.00;1.00;;;;;24.60;37.84;100802.94;5023464;28;45331;-42
2023/07/21 05:56:06;;;;;;;;;1.00;1.00;;;;;24.60;37.68;100806.44;5020760;28;45613;-43
2023/07/21 05:58:34;;;;;;;;;3.00;1.00;;;;;24.61;37.20;100824.03;5025137;28;45916;-42
2023/07/21 06:00:59;;;;;;;;;0.75;0.75;;;;;24.60;37.62;100822.34;5024515;28;45688;-41
2023/07/21 06:03:25;;;;;;;;;1.00;1.00;;;;;24.62;37.88;100819.56;5005382;28;45404;-41
2023/07/21 06:05:52;;;;;;;;;1.00;1.00;;;;;24.61;37.81;100829.34;5020874;28;45506;-42
2023/07/21 06:08:17;;;;;;;;;2.50;1.75;;;;;24.59;37.72;100825.94;5038561;28;46335;-44
2023/07/21 06:10:42;;;;;;;;;1.00;1.00;;;;;24.59;37.26;100825.06;5026541;28;45434;-44
2023/07/21 06:13:08;;;;;;;;;1.25;1.25;;;;;24.59;37.74;100840.97;5021324;28;45364;-43
2023/07/21 06:15:36;;;;;;;;;0.25;0.25;;;;;24.58;37.57;100845.44;5022584;28;45576;-43
2023/07/21 06:18:03;;;;;;;;;1.00;1.00;;;;;24.57;37.21;100830.50;5024565;28;45492;-44
2023/07/21 06:20:28;;;;;;;;;1.00;1.00;;;;;24.57;37.83;100832.31;5027888;28;45234;-40
2023/07/21 06:22:53;;;;;;;;;1.50;1.50;;;;;24.55;37.86;100829.75;5030891;28;44738;-43
2023/07/21 06:25:19;;;;;;;;;3.00;1.25;;;;;24.55;37.41;100824.47;5036585;28;45677;-43
2023/07/21 06:27:46;;;;;;;;;2.00;2.00;;;;;24.56;37.73;100823.50;5023264;28;45957;-46
2023/07/21 06:30:13;;;;;;;;;1.00;1.00;;;;;24.55;38.04;100837.72;5029649;28;45319;-43
2023/07/21 06:32:40;;;;;;;;;1.00;1.00;;;;;24.55;37.99;100840.34;5022062;28;45379;-47
2023/07/21 06:35:06;;;;;;;;;3.25;1.00;;;;;24.55;38.01;100840.34;5026412;28;45259;-42
2023/07/21 06:37:31;;;;;;;;;1.00;1.00;;;;;24.53;37.53;100834.31;5035135;28;46693;-41
2023/07/21 06:39:57;;;;;;;;;1.50;1.50;;;;;24.51;37.60;100829.13;5038367;28;45291;-42
2023/07/21 06:42:22;;;;;;;;;2.00;2.00;;;;;24.53;37.21;100836.97;5032449;28;45327;-42
2023/07/21 06:44:48;;;;;;;;;3.00;2.00;;;;;24.48;37.54;100828.53;5019011;28;45374;-42
2023/07/21 06:47:14;;;;;;;;;2.00;2.00;;;;;24.50;37.09;100834.56;5018613;28;47148;-42
2023/07/21 06:49:40;;;;;;;;;3.00;2.00;;;;;24.48;36.91;100832.00;5000367;28;45346;-44
2023/07/21 06:52:06;;;;;;;;;2.50;1.00;;;;;24.49;37.34;100835.53;5019262;28;45341;-45
2023/07/21 06:54:31;;;;;;;;;1.50;1.25;;;;;24.47;37.45;100840.06;5026082;28;45515;-44
2023/07/21 06:56:58;;;;;;;;;1.25;1.00;;;;;24.44;37.46;100835.84;5023714;28;47793;-45
2023/07/21 06:59:24;;;;;;;;;3.50;1.00;;;;;24.44;37.01;100830.56;5021432;28;45351;-44
2023/07/21 07:01:49;;;;;;;;;2.00;2.00;;;;;24.46;37.68;100831.31;5029493;28;45345;-45
2023/07/21 07:04:15;;;;;;;;;2.00;2.00;;;;;24.43;37.35;100830.66;5000886;28;45469;-43
2023/07/21 07:06:41;;;;;;;;;1.25;1.25;;;;;24.43;37.69;100825.34;4999169;28;47904;-44
2023/07/21 07:09:07;;;;;;;;;1.25;1.00;;;;;24.39;37.23;100822.09;5016860;28;45459;-43
2023/07/21 07:11:32;;;;;;;;;3.00;2.25;;;;;24.43;37.57;100830.66;5017240;28;45338;-46
2023/07/21 07:13:57;;;;;;;;;2.00;2.00;;;;;24.43;37.72;100835.94;5017026;28;45417;-42
2023/07/21 07:16:22;;;;;;;;;1.00;1.00;;;;;24.43;37.32;100835.94;5016647;28;68127;-40
2023/07/21 07:18:48;;;;;;;;;2.75;2.00;;;;;24.42;37.21;100835.13;5018757;28;45287;-42
2023/07/21 07:21:14;;;;;;;;;3.75;2.50;;;;;24.41;37.30;100832.59;5018706;28;45321;-42
2023/07/21 07:23:39;;;;;;;;;3.00;1.50;;;;;24.43;37.35;100843.91;5018799;28;45476;-42
2023/07/21 07:26:05;;;;;;;;;4.00;2.75;;;;;24.43;37.67;100841.25;5017880;28;45423;-41
2023/07/21 07:28:30;;;;;;;;;5.25;1.00;;;;;24.43;37.72;100843.91;5017338;28;45308;-41
2023/07/21 07:30:56;;;;;;;;;4.00;2.00;;;;;24.44;37.74;100842.94;5023274;28;45476;-42
2023/07/21 07:33:21;;;;;;;;;2.50;2.00;;;;;24.43;37.24;100838.59;5024155;28;45238;-42
2023/07/21 07:35:52;;;;;;;;;2.00;2.00;;;;;24.41;37.38;100846.66;5004502;28;48196;-42
2023/07/21 07:38:19;;;;;;;;;2.75;2.00;;;;;24.36;37.21;100844.34;5006740;28;45255;-44
2023/07/21 07:40:46;;;;;;;;;2.00;2.00;;;;;24.41;37.82;100848.47;5026621;28;44833;-41
2023/07/21 07:43:11;;;;;;;;;1.75;1.75;;;;;24.39;37.40;100845.91;5035300;28;45270;-42
2023/07/21 07:45:37;;;;;;;;;2.00;2.00;;;;;24.37;37.74;100846.03;5023980;28;45370;-43
2023/07/21 07:48:03;;;;;;;;;2.00;2.00;;;;;24.39;37.86;100846.78;5026292;28;52888;-42
2023/07/21 07:50:28;;;;;;;;;2.00;2.00;;;;;24.41;37.93;100848.47;5009484;28;45427;-45
2023/07/21 07:52:53;;;;;;;;;6.75;2.00;;;;;24.39;37.70;100860.03;5021103;28;45480;-46
2023/07/21 07:55:19;;;;;;;;;2.25;2.25;;;;;24.41;37.91;100859.06;5031802;28;44982;-40
2023/07/21 07:57:44;;;;;;;;;2.00;2.00;;;;;24.41;37.98;100854.59;5025513;28;45213;-43
2023/07/21 08:00:13;;;;;;;;;2.50;2.25;;;;;24.37;37.93;100850.47;5032638;28;45198;-43
2023/07/21 08:02:39;;;;;;;;;3.75;2.00;;;;;24.40;38.33;100858.22;5025155;28;45464;-43
2023/07/21 08:05:05;;;;;;;;;5.00;3.00;;;;;24.38;38.68;100855.69;5019354;28;46225;-42
2023/07/21 08:07:30;;;;;;;;;2.25;2.00;;;;;24.40;38.74;100874.09;5016699;28;45317;-42
2023/07/21 08:09:55;;;;;;;;;3.00;3.00;;;;;24.39;38.72;100867.13;5016248;28;45458;-40
2023/07/21 08:12:20;;;;;;;;;3.25;3.25;;;;;24.38;38.81;100871.56;5016720;28;45277;-45
2023/07/21 08:14:46;;;;;;;;;3.25;3.25;;;;;24.38;38.53;100865.41;4998668;28;47897;-45
2023/07/21 08:17:12;;;;;;;;;4.50;3.00;;;;;24.38;39.02;100865.41;5016703;28;45408;-46
2023/07/21 08:19:37;;;;;;;;;3.00;3.00;;;;;24.36;39.01;100873.47;5017274;28;45373;-46
2023/07/21 08:22:05;;;;;;;;;4.00;3.50;;;;;24.37;38.58;100875.19;5023773;28;45273;-42
2023/07/21 08:24:32;;;;;;;;;3.00;3.00;;;;;24.36;38.71;100868.19;5017211;28;47254;-46
2023/07/21 08:26:59;;;;;;;;;3.00;3.00;;;;;24.35;39.07;100870.97;5018046;28;45689;-45
2023/07/21 08:29:25;;;;;;;;;3.00;3.00;;;;;24.37;38.61;100877.84;5022504;28;45459;-44
2023/07/21 08:31:51;;;;;;;;;5.25;2.75;;;;;24.38;39.33;100879.53;5030990;28;45472;-44
2023/07/21 08:34:16;;;;;;;;;6.00;3.00;;;;;24.38;39.07;100879.53;5034775;28;45426;-44
